ROMMA est une association bénévole à but non lucratif. Votre soutien est indispensable : ADHERER à ROMMA ou FAIRE un DON

Taninges - (74, Haute-Savoie)

Vallée du Giffre (635 m)   Longitude: 06° 35' 38" E   Latitude: 46° 06' 21" N Station romma n°98
 

Détail journalier du     <<     >>

Température Humidité Pression Vent Dir Rafale Dir. rafale Ensol.
Heure (°C) (%) (hPa) (km/h) (km/h) (min)
01:00 16.195101903SE0
02:00 15.396101902SE0
03:00 14.996101903SE0
04:00 14.697101903SE0
05:00 14.097101902SE0
06:00 13.89710191SE5SE0
07:00 14.09710201S3S0
08:00 14.69710201SSO3S5
09:00 15.69810201SSE5SSO35
10:00 18.29810202S6OSO60
11:00 22.27910194OSO15SO60
12:00 23.87310198OSO16O60
13:00 25.07110189SO21OSO60
14:00 26.171101812SO26SO60
15:00 26.965101713SO24OSO60
16:00 27.561101614OSO26SSO60
17:00 27.657101612OSO23SO60
18:00 27.157101611OSO26OSO60
19:00 25.95810178OSO24O55
20:00 22.87310172NNE11O0
21:00 20.28210181ESE5NE0
22:00 18.78810181ESE5ESE0
23:00 17.59110171ENE6S0
minuit 16.79210171SO5SO0

Graphique du 30-08-2019

 

Serveur OMMA